Amado, Arizona
Current Conditions -  °F | °C
As of 3:54 PM on Monday 20 Oct 2014 (Local Time) from KOLS Reporting Station
Broken Clouds Broken Clouds  
Wind Chill: 77°   Ceiling: 11000
Heat Index: 78°   Visibility: 10mi
Dew Point: 47°   Wind: 12mph
Humidity: 34%   Direction: 10°N
Pressure: 29.96"   Gusts: 17mph
Location:  31.71°N, 111.07°W
Report Text: KOLS 202254Z AUTO 01010G15KT 10SM BKN110 25/08 A2996 RMK AO2 SLP093 T02500083
Loading
Personal Weather Stations






























Interactive Weather Map
Tropical Storm Tracking
New forecast layout! Learn more

10-Day Weather Forecast

Advertisements
Track Severe Weather on mobile